sensor_id;sensor_type;location;lat;lon;timestamp;P1;durP1;ratioP1;P2;durP2;ratioP2
7116;SDS011;3600;48.568;7.870;2023-07-20T00:01:51;2.70;;;2.47;;
7116;SDS011;3600;48.568;7.870;2023-07-20T00:04:18;2.67;;;2.45;;
7116;SDS011;3600;48.568;7.870;2023-07-20T00:06:45;2.95;;;2.55;;
7116;SDS011;3600;48.568;7.870;2023-07-20T00:09:12;2.83;;;2.13;;
7116;SDS011;3600;48.568;7.870;2023-07-20T00:11:39;3.80;;;2.42;;
7116;SDS011;3600;48.568;7.870;2023-07-20T00:14:06;3.17;;;2.60;;
7116;SDS011;3600;48.568;7.870;2023-07-20T00:16:33;3.15;;;2.20;;
7116;SDS011;3600;48.568;7.870;2023-07-20T00:19:00;4.70;;;2.10;;
7116;SDS011;3600;48.568;7.870;2023-07-20T00:21:27;3.28;;;2.20;;
7116;SDS011;3600;48.568;7.870;2023-07-20T00:23:54;2.38;;;2.17;;
7116;SDS011;3600;48.568;7.870;2023-07-20T00:26:20;4.50;;;2.40;;
7116;SDS011;3600;48.568;7.870;2023-07-20T00:28:49;7.20;;;2.28;;
7116;SDS011;3600;48.568;7.870;2023-07-20T00:31:16;2.78;;;2.42;;
7116;SDS011;3600;48.568;7.870;2023-07-20T00:33:43;2.58;;;2.17;;
7116;SDS011;3600;48.568;7.870;2023-07-20T00:36:10;3.45;;;2.70;;
7116;SDS011;3600;48.568;7.870;2023-07-20T00:38:37;3.05;;;2.25;;
7116;SDS011;3600;48.568;7.870;2023-07-20T00:41:03;2.88;;;2.53;;
7116;SDS011;3600;48.568;7.870;2023-07-20T00:43:30;2.40;;;2.20;;
7116;SDS011;3600;48.568;7.870;2023-07-20T00:45:57;4.07;;;2.53;;
7116;SDS011;3600;48.568;7.870;2023-07-20T00:48:24;3.38;;;2.58;;
7116;SDS011;3600;48.568;7.870;2023-07-20T00:50:52;2.25;;;2.05;;
7116;SDS011;3600;48.568;7.870;2023-07-20T00:53:18;2.42;;;2.22;;
7116;SDS011;3600;48.568;7.870;2023-07-20T00:55:46;2.85;;;2.60;;
7116;SDS011;3600;48.568;7.870;2023-07-20T00:58:13;2.95;;;2.50;;
7116;SDS011;3600;48.568;7.870;2023-07-20T01:00:40;3.00;;;2.40;;
7116;SDS011;3600;48.568;7.870;2023-07-20T01:03:07;2.55;;;2.28;;
7116;SDS011;3600;48.568;7.870;2023-07-20T01:05:40;2.50;;;2.30;;
7116;SDS011;3600;48.568;7.870;2023-07-20T01:08:13;2.38;;;2.17;;
7116;SDS011;3600;48.568;7.870;2023-07-20T01:10:46;5.25;;;2.38;;
7116;SDS011;3600;48.568;7.870;2023-07-20T01:13:23;3.42;;;3.00;;
7116;SDS011;3600;48.568;7.870;2023-07-20T01:16:01;4.78;;;2.83;;
7116;SDS011;3600;48.568;7.870;2023-07-20T01:18:28;3.38;;;2.40;;
7116;SDS011;3600;48.568;7.870;2023-07-20T01:20:59;3.50;;;2.88;;
7116;SDS011;3600;48.568;7.870;2023-07-20T01:23:35;3.80;;;2.80;;
7116;SDS011;3600;48.568;7.870;2023-07-20T01:29:11;4.20;;;2.90;;
7116;SDS011;3600;48.568;7.870;2023-07-20T01:31:45;3.80;;;3.20;;
7116;SDS011;3600;48.568;7.870;2023-07-20T01:34:15;3.47;;;2.97;;
7116;SDS011;3600;48.568;7.870;2023-07-20T01:36:44;2.72;;;2.33;;
7116;SDS011;3600;48.568;7.870;2023-07-20T01:39:12;3.67;;;3.20;;
7116;SDS011;3600;48.568;7.870;2023-07-20T01:41:40;6.07;;;3.95;;
7116;SDS011;3600;48.568;7.870;2023-07-20T01:44:07;4.45;;;4.05;;
7116;SDS011;3600;48.568;7.870;2023-07-20T01:46:34;4.38;;;3.97;;
7116;SDS011;3600;48.568;7.870;2023-07-20T01:49:02;4.43;;;3.78;;
7116;SDS011;3600;48.568;7.870;2023-07-20T01:51:28;5.40;;;4.22;;
7116;SDS011;3600;48.568;7.870;2023-07-20T01:53:55;4.57;;;4.07;;
7116;SDS011;3600;48.568;7.870;2023-07-20T01:56:22;5.85;;;4.57;;
7116;SDS011;3600;48.568;7.870;2023-07-20T01:58:49;5.05;;;3.75;;
7116;SDS011;3600;48.568;7.870;2023-07-20T02:01:16;4.45;;;3.22;;
7116;SDS011;3600;48.568;7.870;2023-07-20T02:03:43;4.13;;;3.10;;
7116;SDS011;3600;48.568;7.870;2023-07-20T02:06:11;3.65;;;2.90;;
7116;SDS011;3600;48.568;7.870;2023-07-20T02:08:38;3.53;;;3.05;;
7116;SDS011;3600;48.568;7.870;2023-07-20T02:11:05;4.90;;;3.50;;
7116;SDS011;3600;48.568;7.870;2023-07-20T02:13:32;3.67;;;3.05;;
7116;SDS011;3600;48.568;7.870;2023-07-20T02:15:59;4.00;;;3.10;;
7116;SDS011;3600;48.568;7.870;2023-07-20T02:18:26;3.55;;;3.20;;
7116;SDS011;3600;48.568;7.870;2023-07-20T02:20:53;4.25;;;2.90;;
7116;SDS011;3600;48.568;7.870;2023-07-20T02:23:20;4.78;;;3.35;;
7116;SDS011;3600;48.568;7.870;2023-07-20T02:25:47;4.82;;;2.88;;
7116;SDS011;3600;48.568;7.870;2023-07-20T02:28:14;5.03;;;3.25;;
7116;SDS011;3600;48.568;7.870;2023-07-20T02:30:41;3.50;;;3.08;;
7116;SDS011;3600;48.568;7.870;2023-07-20T02:33:08;3.72;;;3.28;;
7116;SDS011;3600;48.568;7.870;2023-07-20T02:35:35;4.78;;;3.30;;
7116;SDS011;3600;48.568;7.870;2023-07-20T02:38:02;4.57;;;2.95;;
7116;SDS011;3600;48.568;7.870;2023-07-20T02:40:29;6.55;;;3.65;;
7116;SDS011;3600;48.568;7.870;2023-07-20T02:42:56;3.20;;;2.70;;
7116;SDS011;3600;48.568;7.870;2023-07-20T02:45:23;6.03;;;3.28;;
7116;SDS011;3600;48.568;7.870;2023-07-20T02:47:50;3.47;;;3.17;;
7116;SDS011;3600;48.568;7.870;2023-07-20T02:50:17;3.00;;;2.67;;
7116;SDS011;3600;48.568;7.870;2023-07-20T02:52:44;4.30;;;2.92;;
7116;SDS011;3600;48.568;7.870;2023-07-20T02:55:10;4.28;;;3.10;;
7116;SDS011;3600;48.568;7.870;2023-07-20T02:57:37;3.22;;;2.92;;
7116;SDS011;3600;48.568;7.870;2023-07-20T03:00:04;3.25;;;2.95;;
7116;SDS011;3600;48.568;7.870;2023-07-20T03:02:34;4.20;;;3.30;;
7116;SDS011;3600;48.568;7.870;2023-07-20T03:05:01;3.20;;;2.92;;
7116;SDS011;3600;48.568;7.870;2023-07-20T03:07:29;4.35;;;3.40;;
7116;SDS011;3600;48.568;7.870;2023-07-20T03:09:55;4.60;;;3.75;;
7116;SDS011;3600;48.568;7.870;2023-07-20T03:12:23;3.17;;;2.88;;
7116;SDS011;3600;48.568;7.870;2023-07-20T03:14:50;5.90;;;3.28;;
7116;SDS011;3600;48.568;7.870;2023-07-20T03:17:17;3.10;;;2.83;;
7116;SDS011;3600;48.568;7.870;2023-07-20T03:19:44;3.63;;;2.72;;
7116;SDS011;3600;48.568;7.870;2023-07-20T03:22:11;3.45;;;3.15;;
7116;SDS011;3600;48.568;7.870;2023-07-20T03:24:38;4.25;;;3.47;;
7116;SDS011;3600;48.568;7.870;2023-07-20T03:27:05;3.50;;;2.85;;
7116;SDS011;3600;48.568;7.870;2023-07-20T03:29:32;3.53;;;3.05;;
7116;SDS011;3600;48.568;7.870;2023-07-20T03:31:59;4.15;;;3.08;;
7116;SDS011;3600;48.568;7.870;2023-07-20T03:34:26;4.03;;;3.10;;
7116;SDS011;3600;48.568;7.870;2023-07-20T03:36:53;3.38;;;3.08;;
7116;SDS011;3600;48.568;7.870;2023-07-20T03:39:20;4.28;;;2.95;;
7116;SDS011;3600;48.568;7.870;2023-07-20T03:41:48;3.65;;;3.15;;
7116;SDS011;3600;48.568;7.870;2023-07-20T03:44:14;4.75;;;3.15;;
7116;SDS011;3600;48.568;7.870;2023-07-20T03:46:42;3.55;;;3.25;;
7116;SDS011;3600;48.568;7.870;2023-07-20T03:49:09;3.33;;;2.88;;
7116;SDS011;3600;48.568;7.870;2023-07-20T03:51:36;5.00;;;3.35;;
7116;SDS011;3600;48.568;7.870;2023-07-20T03:54:03;4.93;;;3.60;;
7116;SDS011;3600;48.568;7.870;2023-07-20T03:56:30;3.20;;;2.95;;
7116;SDS011;3600;48.568;7.870;2023-07-20T03:59:00;4.53;;;3.10;;
7116;SDS011;3600;48.568;7.870;2023-07-20T04:01:27;5.38;;;3.13;;
7116;SDS011;3600;48.568;7.870;2023-07-20T04:03:54;5.50;;;3.30;;
7116;SDS011;3600;48.568;7.870;2023-07-20T04:06:21;6.53;;;3.20;;
7116;SDS011;3600;48.568;7.870;2023-07-20T04:08:49;3.70;;;3.22;;
7116;SDS011;3600;48.568;7.870;2023-07-20T04:11:15;4.05;;;3.20;;
7116;SDS011;3600;48.568;7.870;2023-07-20T04:13:42;3.22;;;2.97;;
7116;SDS011;3600;48.568;7.870;2023-07-20T04:16:09;3.58;;;3.28;;
7116;SDS011;3600;48.568;7.870;2023-07-20T04:18:36;3.47;;;3.10;;
7116;SDS011;3600;48.568;7.870;2023-07-20T04:21:03;4.38;;;3.33;;
7116;SDS011;3600;48.568;7.870;2023-07-20T04:23:30;3.53;;;3.15;;
7116;SDS011;3600;48.568;7.870;2023-07-20T04:25:56;4.40;;;3.30;;
7116;SDS011;3600;48.568;7.870;2023-07-20T04:28:23;3.30;;;2.90;;
7116;SDS011;3600;48.568;7.870;2023-07-20T04:30:50;5.10;;;3.63;;
7116;SDS011;3600;48.568;7.870;2023-07-20T04:33:19;4.88;;;3.50;;
7116;SDS011;3600;48.568;7.870;2023-07-20T04:35:52;4.20;;;3.38;;
7116;SDS011;3600;48.568;7.870;2023-07-20T04:38:21;3.97;;;3.60;;
7116;SDS011;3600;48.568;7.870;2023-07-20T04:40:48;3.63;;;3.33;;
7116;SDS011;3600;48.568;7.870;2023-07-20T04:43:16;3.95;;;3.10;;
7116;SDS011;3600;48.568;7.870;2023-07-20T04:45:44;5.63;;;3.70;;
7116;SDS011;3600;48.568;7.870;2023-07-20T04:48:16;3.70;;;3.40;;
7116;SDS011;3600;48.568;7.870;2023-07-20T04:50:44;3.45;;;3.15;;
7116;SDS011;3600;48.568;7.870;2023-07-20T04:53:12;3.85;;;3.13;;
7116;SDS011;3600;48.568;7.870;2023-07-20T04:55:39;3.85;;;3.38;;
7116;SDS011;3600;48.568;7.870;2023-07-20T04:58:07;4.47;;;3.33;;
7116;SDS011;3600;48.568;7.870;2023-07-20T05:00:34;3.42;;;3.13;;
7116;SDS011;3600;48.568;7.870;2023-07-20T05:03:01;4.53;;;3.60;;
7116;SDS011;3600;48.568;7.870;2023-07-20T05:05:28;4.25;;;3.25;;
7116;SDS011;3600;48.568;7.870;2023-07-20T05:07:55;5.60;;;3.75;;
7116;SDS011;3600;48.568;7.870;2023-07-20T05:10:21;4.38;;;3.47;;
7116;SDS011;3600;48.568;7.870;2023-07-20T05:12:49;3.65;;;3.13;;
7116;SDS011;3600;48.568;7.870;2023-07-20T05:15:16;6.22;;;3.35;;
7116;SDS011;3600;48.568;7.870;2023-07-20T05:17:42;3.90;;;3.50;;
7116;SDS011;3600;48.568;7.870;2023-07-20T05:20:09;5.57;;;3.38;;
7116;SDS011;3600;48.568;7.870;2023-07-20T05:22:36;4.78;;;3.88;;
7116;SDS011;3600;48.568;7.870;2023-07-20T05:25:07;4.65;;;3.65;;
7116;SDS011;3600;48.568;7.870;2023-07-20T05:27:39;6.90;;;3.92;;
7116;SDS011;3600;48.568;7.870;2023-07-20T05:30:06;6.85;;;3.92;;
7116;SDS011;3600;48.568;7.870;2023-07-20T05:32:33;4.63;;;3.88;;
7116;SDS011;3600;48.568;7.870;2023-07-20T05:35:00;7.00;;;4.32;;
7116;SDS011;3600;48.568;7.870;2023-07-20T05:37:27;5.40;;;3.65;;
7116;SDS011;3600;48.568;7.870;2023-07-20T05:39:54;4.25;;;3.42;;
7116;SDS011;3600;48.568;7.870;2023-07-20T05:42:21;3.60;;;3.30;;
7116;SDS011;3600;48.568;7.870;2023-07-20T05:44:48;6.20;;;3.50;;
7116;SDS011;3600;48.568;7.870;2023-07-20T05:47:16;4.72;;;3.17;;
7116;SDS011;3600;48.568;7.870;2023-07-20T05:49:42;4.78;;;3.75;;
7116;SDS011;3600;48.568;7.870;2023-07-20T05:52:10;5.88;;;3.30;;
7116;SDS011;3600;48.568;7.870;2023-07-20T05:54:36;4.82;;;3.38;;
7116;SDS011;3600;48.568;7.870;2023-07-20T05:57:04;4.38;;;3.95;;
7116;SDS011;3600;48.568;7.870;2023-07-20T05:59:31;6.90;;;3.95;;
7116;SDS011;3600;48.568;7.870;2023-07-20T06:01:59;6.70;;;3.28;;
7116;SDS011;3600;48.568;7.870;2023-07-20T06:04:26;7.22;;;3.50;;
7116;SDS011;3600;48.568;7.870;2023-07-20T06:06:52;7.32;;;3.75;;
7116;SDS011;3600;48.568;7.870;2023-07-20T06:09:19;8.02;;;3.30;;
7116;SDS011;3600;48.568;7.870;2023-07-20T06:11:46;3.88;;;3.47;;
7116;SDS011;3600;48.568;7.870;2023-07-20T06:14:13;5.30;;;3.95;;
7116;SDS011;3600;48.568;7.870;2023-07-20T06:16:40;6.15;;;3.33;;
7116;SDS011;3600;48.568;7.870;2023-07-20T06:19:07;5.72;;;3.50;;
7116;SDS011;3600;48.568;7.870;2023-07-20T06:21:34;5.20;;;3.60;;
7116;SDS011;3600;48.568;7.870;2023-07-20T06:24:01;6.50;;;3.50;;
7116;SDS011;3600;48.568;7.870;2023-07-20T06:26:27;5.45;;;3.47;;
7116;SDS011;3600;48.568;7.870;2023-07-20T06:28:56;5.80;;;3.95;;
7116;SDS011;3600;48.568;7.870;2023-07-20T06:31:23;5.88;;;3.15;;
7116;SDS011;3600;48.568;7.870;2023-07-20T06:33:50;4.22;;;3.08;;
7116;SDS011;3600;48.568;7.870;2023-07-20T06:36:17;6.95;;;3.28;;
7116;SDS011;3600;48.568;7.870;2023-07-20T06:38:45;4.60;;;3.00;;
7116;SDS011;3600;48.568;7.870;2023-07-20T06:41:31;4.05;;;2.38;;
7116;SDS011;3600;48.568;7.870;2023-07-20T06:44:01;2.42;;;1.70;;
7116;SDS011;3600;48.568;7.870;2023-07-20T06:46:28;2.75;;;1.80;;
7116;SDS011;3600;48.568;7.870;2023-07-20T06:48:55;2.72;;;1.90;;
7116;SDS011;3600;48.568;7.870;2023-07-20T06:51:26;2.10;;;1.60;;
7116;SDS011;3600;48.568;7.870;2023-07-20T06:53:52;3.95;;;1.88;;
7116;SDS011;3600;48.568;7.870;2023-07-20T06:56:19;4.93;;;1.90;;
7116;SDS011;3600;48.568;7.870;2023-07-20T06:58:50;3.90;;;1.92;;
7116;SDS011;3600;48.568;7.870;2023-07-20T07:01:18;2.42;;;1.63;;
7116;SDS011;3600;48.568;7.870;2023-07-20T07:03:48;1.83;;;1.70;;
7116;SDS011;3600;48.568;7.870;2023-07-20T07:06:19;2.13;;;1.70;;
7116;SDS011;3600;48.568;7.870;2023-07-20T07:08:48;5.90;;;1.50;;
7116;SDS011;3600;48.568;7.870;2023-07-20T07:11:15;3.70;;;1.70;;
7116;SDS011;3600;48.568;7.870;2023-07-20T07:13:41;3.08;;;1.48;;
7116;SDS011;3600;48.568;7.870;2023-07-20T07:16:08;4.13;;;2.45;;
7116;SDS011;3600;48.568;7.870;2023-07-20T07:18:35;2.30;;;1.67;;
7116;SDS011;3600;48.568;7.870;2023-07-20T07:21:03;3.45;;;1.75;;
7116;SDS011;3600;48.568;7.870;2023-07-20T07:23:29;2.78;;;1.80;;
7116;SDS011;3600;48.568;7.870;2023-07-20T07:25:56;2.63;;;1.75;;
7116;SDS011;3600;48.568;7.870;2023-07-20T07:28:23;2.90;;;1.63;;
7116;SDS011;3600;48.568;7.870;2023-07-20T07:30:50;4.47;;;1.83;;
7116;SDS011;3600;48.568;7.870;2023-07-20T07:33:17;2.45;;;1.80;;
7116;SDS011;3600;48.568;7.870;2023-07-20T07:35:43;5.13;;;2.00;;
7116;SDS011;3600;48.568;7.870;2023-07-20T07:38:10;2.30;;;1.70;;
7116;SDS011;3600;48.568;7.870;2023-07-20T07:40:57;3.63;;;2.00;;
7116;SDS011;3600;48.568;7.870;2023-07-20T07:43:25;5.78;;;2.00;;
7116;SDS011;3600;48.568;7.870;2023-07-20T07:45:53;1.98;;;1.63;;
7116;SDS011;3600;48.568;7.870;2023-07-20T07:48:20;4.80;;;2.17;;
7116;SDS011;3600;48.568;7.870;2023-07-20T07:50:48;3.85;;;1.50;;
7116;SDS011;3600;48.568;7.870;2023-07-20T07:53:16;3.10;;;1.88;;
7116;SDS011;3600;48.568;7.870;2023-07-20T07:55:43;4.15;;;1.83;;
7116;SDS011;3600;48.568;7.870;2023-07-20T07:58:09;3.05;;;1.85;;
7116;SDS011;3600;48.568;7.870;2023-07-20T08:00:36;1.85;;;1.50;;
7116;SDS011;3600;48.568;7.870;2023-07-20T08:03:03;3.30;;;2.05;;
7116;SDS011;3600;48.568;7.870;2023-07-20T08:05:30;3.47;;;1.90;;
7116;SDS011;3600;48.568;7.870;2023-07-20T08:07:57;2.67;;;1.80;;
7116;SDS011;3600;48.568;7.870;2023-07-20T08:10:24;4.15;;;2.17;;
7116;SDS011;3600;48.568;7.870;2023-07-20T08:12:51;1.40;;;1.30;;
7116;SDS011;3600;48.568;7.870;2023-07-20T08:15:18;2.00;;;1.80;;
7116;SDS011;3600;48.568;7.870;2023-07-20T08:17:45;4.22;;;1.83;;
7116;SDS011;3600;48.568;7.870;2023-07-20T08:20:13;1.70;;;1.55;;
7116;SDS011;3600;48.568;7.870;2023-07-20T08:22:40;5.70;;;2.03;;
7116;SDS011;3600;48.568;7.870;2023-07-20T08:25:07;3.30;;;1.70;;
7116;SDS011;3600;48.568;7.870;2023-07-20T08:27:34;2.55;;;2.10;;
7116;SDS011;3600;48.568;7.870;2023-07-20T08:30:02;3.05;;;1.85;;
7116;SDS011;3600;48.568;7.870;2023-07-20T08:32:30;4.82;;;2.28;;
7116;SDS011;3600;48.568;7.870;2023-07-20T08:34:58;2.42;;;1.88;;
7116;SDS011;3600;48.568;7.870;2023-07-20T08:37:25;2.17;;;1.95;;
7116;SDS011;3600;48.568;7.870;2023-07-20T08:39:52;3.13;;;2.30;;
7116;SDS011;3600;48.568;7.870;2023-07-20T08:42:19;2.35;;;1.90;;
7116;SDS011;3600;48.568;7.870;2023-07-20T08:44:46;2.78;;;2.08;;
7116;SDS011;3600;48.568;7.870;2023-07-20T08:47:16;3.17;;;1.67;;
7116;SDS011;3600;48.568;7.870;2023-07-20T08:49:43;2.63;;;1.73;;
7116;SDS011;3600;48.568;7.870;2023-07-20T08:52:14;2.38;;;1.90;;
7116;SDS011;3600;48.568;7.870;2023-07-20T08:54:41;2.72;;;1.65;;
7116;SDS011;3600;48.568;7.870;2023-07-20T08:57:07;2.75;;;1.85;;
7116;SDS011;3600;48.568;7.870;2023-07-20T08:59:39;2.67;;;1.63;;
7116;SDS011;3600;48.568;7.870;2023-07-20T09:02:06;2.42;;;1.80;;
7116;SDS011;3600;48.568;7.870;2023-07-20T09:04:35;2.15;;;1.80;;
7116;SDS011;3600;48.568;7.870;2023-07-20T09:07:03;1.95;;;1.70;;
7116;SDS011;3600;48.568;7.870;2023-07-20T09:09:30;4.03;;;1.90;;
7116;SDS011;3600;48.568;7.870;2023-07-20T09:11:56;4.93;;;1.85;;
7116;SDS011;3600;48.568;7.870;2023-07-20T09:14:23;2.30;;;2.10;;
7116;SDS011;3600;48.568;7.870;2023-07-20T09:16:53;3.10;;;2.00;;
7116;SDS011;3600;48.568;7.870;2023-07-20T09:19:21;2.67;;;1.90;;
7116;SDS011;3600;48.568;7.870;2023-07-20T09:21:48;3.25;;;2.10;;
7116;SDS011;3600;48.568;7.870;2023-07-20T09:24:19;2.45;;;1.80;;
7116;SDS011;3600;48.568;7.870;2023-07-20T09:26:47;2.15;;;1.90;;
7116;SDS011;3600;48.568;7.870;2023-07-20T09:29:17;2.53;;;1.73;;
7116;SDS011;3600;48.568;7.870;2023-07-20T09:32:01;3.08;;;1.70;;
7116;SDS011;3600;48.568;7.870;2023-07-20T09:34:29;3.10;;;2.25;;
7116;SDS011;3600;48.568;7.870;2023-07-20T09:37:02;4.57;;;1.52;;
7116;SDS011;3600;48.568;7.870;2023-07-20T09:39:30;3.13;;;1.88;;
7116;SDS011;3600;48.568;7.870;2023-07-20T09:42:00;2.97;;;1.92;;
7116;SDS011;3600;48.568;7.870;2023-07-20T09:44:31;3.17;;;1.88;;
7116;SDS011;3600;48.568;7.870;2023-07-20T09:47:02;1.95;;;1.73;;
7116;SDS011;3600;48.568;7.870;2023-07-20T09:49:31;2.15;;;1.73;;
7116;SDS011;3600;48.568;7.870;2023-07-20T09:52:18;24.90;;;2.33;;
7116;SDS011;3600;48.568;7.870;2023-07-20T09:54:49;2.83;;;1.50;;
7116;SDS011;3600;48.568;7.870;2023-07-20T09:57:16;1.83;;;1.67;;
7116;SDS011;3600;48.568;7.870;2023-07-20T09:59:43;2.58;;;1.88;;
7116;SDS011;3600;48.568;7.870;2023-07-20T10:02:20;3.60;;;2.25;;
7116;SDS011;3600;48.568;7.870;2023-07-20T10:04:49;4.85;;;1.60;;
7116;SDS011;3600;48.568;7.870;2023-07-20T10:07:19;2.15;;;1.77;;
7116;SDS011;3600;48.568;7.870;2023-07-20T10:09:49;3.08;;;1.77;;
7116;SDS011;3600;48.568;7.870;2023-07-20T10:12:21;4.32;;;2.05;;
7116;SDS011;3600;48.568;7.870;2023-07-20T10:14:59;2.97;;;1.73;;
7116;SDS011;3600;48.568;7.870;2023-07-20T10:17:39;2.60;;;1.80;;
7116;SDS011;3600;48.568;7.870;2023-07-20T10:20:16;1.60;;;1.50;;
7116;SDS011;3600;48.568;7.870;2023-07-20T10:22:45;3.47;;;1.83;;
7116;SDS011;3600;48.568;7.870;2023-07-20T10:25:14;4.97;;;2.03;;
7116;SDS011;3600;48.568;7.870;2023-07-20T10:27:42;2.67;;;1.60;;
7116;SDS011;3600;48.568;7.870;2023-07-20T10:30:09;2.97;;;1.70;;
7116;SDS011;3600;48.568;7.870;2023-07-20T10:32:36;3.95;;;1.90;;
7116;SDS011;3600;48.568;7.870;2023-07-20T10:35:11;2.42;;;2.10;;
7116;SDS011;3600;48.568;7.870;2023-07-20T10:37:46;8.77;;;2.03;;
7116;SDS011;3600;48.568;7.870;2023-07-20T10:40:27;4.75;;;2.05;;
7116;SDS011;3600;48.568;7.870;2023-07-20T10:42:58;2.47;;;1.60;;
7116;SDS011;3600;48.568;7.870;2023-07-20T10:45:34;1.75;;;1.50;;
7116;SDS011;3600;48.568;7.870;2023-07-20T10:48:17;3.05;;;1.77;;
7116;SDS011;3600;48.568;7.870;2023-07-20T10:50:46;3.15;;;1.58;;
7116;SDS011;3600;48.568;7.870;2023-07-20T10:53:40;2.45;;;1.70;;
7116;SDS011;3600;48.568;7.870;2023-07-20T10:56:14;2.28;;;1.88;;
7116;SDS011;3600;48.568;7.870;2023-07-20T10:58:45;2.33;;;1.40;;
7116;SDS011;3600;48.568;7.870;2023-07-20T11:01:16;2.03;;;1.83;;
7116;SDS011;3600;48.568;7.870;2023-07-20T11:03:44;2.42;;;1.70;;
7116;SDS011;3600;48.568;7.870;2023-07-20T11:08:56;4.50;;;1.90;;
7116;SDS011;3600;48.568;7.870;2023-07-20T11:11:27;1.60;;;1.50;;
7116;SDS011;3600;48.568;7.870;2023-07-20T11:13:59;1.55;;;1.45;;
7116;SDS011;3600;48.568;7.870;2023-07-20T11:19:04;1.52;;;1.33;;
7116;SDS011;3600;48.568;7.870;2023-07-20T11:21:35;3.05;;;1.60;;
7116;SDS011;3600;48.568;7.870;2023-07-20T11:24:17;1.77;;;1.67;;
7116;SDS011;3600;48.568;7.870;2023-07-20T11:29:15;3.72;;;1.40;;
7116;SDS011;3600;48.568;7.870;2023-07-20T11:31:57;2.00;;;1.52;;
7116;SDS011;3600;48.568;7.870;2023-07-20T11:34:31;1.30;;;1.20;;
7116;SDS011;3600;48.568;7.870;2023-07-20T11:36:59;2.17;;;1.40;;
7116;SDS011;3600;48.568;7.870;2023-07-20T11:39:29;2.00;;;1.48;;
7116;SDS011;3600;48.568;7.870;2023-07-20T11:41:56;1.65;;;1.55;;
7116;SDS011;3600;48.568;7.870;2023-07-20T11:44:25;1.15;;;1.10;;
7116;SDS011;3600;48.568;7.870;2023-07-20T11:49:36;2.13;;;1.38;;
7116;SDS011;3600;48.568;7.870;2023-07-20T11:52:33;1.92;;;1.50;;
7116;SDS011;3600;48.568;7.870;2023-07-20T11:55:01;3.03;;;1.40;;
7116;SDS011;3600;48.568;7.870;2023-07-20T11:57:29;1.30;;;1.20;;
7116;SDS011;3600;48.568;7.870;2023-07-20T12:00:00;2.35;;;1.55;;
7116;SDS011;3600;48.568;7.870;2023-07-20T12:02:37;1.58;;;1.45;;
7116;SDS011;3600;48.568;7.870;2023-07-20T12:05:07;1.65;;;1.20;;
7116;SDS011;3600;48.568;7.870;2023-07-20T12:07:35;1.50;;;1.40;;
7116;SDS011;3600;48.568;7.870;2023-07-20T12:10:06;1.58;;;1.25;;
7116;SDS011;3600;48.568;7.870;2023-07-20T12:12:42;1.30;;;1.10;;
7116;SDS011;3600;48.568;7.870;2023-07-20T12:15:25;2.33;;;1.48;;
7116;SDS011;3600;48.568;7.870;2023-07-20T12:17:53;2.30;;;1.33;;
7116;SDS011;3600;48.568;7.870;2023-07-20T12:20:26;1.42;;;1.25;;
7116;SDS011;3600;48.568;7.870;2023-07-20T12:23:08;3.70;;;1.40;;
7116;SDS011;3600;48.568;7.870;2023-07-20T12:25:37;3.45;;;1.40;;
7116;SDS011;3600;48.568;7.870;2023-07-20T12:28:11;1.38;;;1.25;;
7116;SDS011;3600;48.568;7.870;2023-07-20T12:30:40;1.33;;;1.23;;
7116;SDS011;3600;48.568;7.870;2023-07-20T12:33:08;1.35;;;1.20;;
7116;SDS011;3600;48.568;7.870;2023-07-20T12:35:35;1.50;;;1.40;;
7116;SDS011;3600;48.568;7.870;2023-07-20T12:38:02;2.22;;;1.30;;
7116;SDS011;3600;48.568;7.870;2023-07-20T12:40:29;2.15;;;1.38;;
7116;SDS011;3600;48.568;7.870;2023-07-20T12:42:57;1.42;;;1.33;;
7116;SDS011;3600;48.568;7.870;2023-07-20T12:45:24;1.88;;;1.77;;
7116;SDS011;3600;48.568;7.870;2023-07-20T12:47:51;2.38;;;1.48;;
7116;SDS011;3600;48.568;7.870;2023-07-20T12:50:18;2.15;;;1.23;;
7116;SDS011;3600;48.568;7.870;2023-07-20T12:52:44;2.85;;;1.50;;
7116;SDS011;3600;48.568;7.870;2023-07-20T12:55:11;1.50;;;1.40;;
7116;SDS011;3600;48.568;7.870;2023-07-20T12:57:38;2.47;;;1.60;;
7116;SDS011;3600;48.568;7.870;2023-07-20T13:00:08;1.25;;;1.17;;
7116;SDS011;3600;48.568;7.870;2023-07-20T13:02:37;1.45;;;1.33;;
7116;SDS011;3600;48.568;7.870;2023-07-20T13:05:04;1.30;;;1.20;;
7116;SDS011;3600;48.568;7.870;2023-07-20T13:07:35;2.35;;;1.25;;
7116;SDS011;3600;48.568;7.870;2023-07-20T13:10:05;1.58;;;1.48;;
7116;SDS011;3600;48.568;7.870;2023-07-20T13:12:33;3.13;;;1.58;;
7116;SDS011;3600;48.568;7.870;2023-07-20T13:15:02;1.70;;;1.50;;
7116;SDS011;3600;48.568;7.870;2023-07-20T13:17:32;1.40;;;1.30;;
7116;SDS011;3600;48.568;7.870;2023-07-20T13:20:00;2.38;;;1.38;;
7116;SDS011;3600;48.568;7.870;2023-07-20T13:22:29;2.42;;;1.65;;
7116;SDS011;3600;48.568;7.870;2023-07-20T13:24:56;2.55;;;1.40;;
7116;SDS011;3600;48.568;7.870;2023-07-20T13:27:22;5.43;;;1.30;;
7116;SDS011;3600;48.568;7.870;2023-07-20T13:29:50;1.40;;;1.30;;
7116;SDS011;3600;48.568;7.870;2023-07-20T13:32:17;1.38;;;1.27;;
7116;SDS011;3600;48.568;7.870;2023-07-20T13:34:44;2.58;;;1.48;;
7116;SDS011;3600;48.568;7.870;2023-07-20T13:37:14;1.30;;;1.20;;
7116;SDS011;3600;48.568;7.870;2023-07-20T13:39:42;1.42;;;1.33;;
7116;SDS011;3600;48.568;7.870;2023-07-20T13:42:10;1.73;;;1.23;;
7116;SDS011;3600;48.568;7.870;2023-07-20T13:44:38;2.88;;;1.30;;
7116;SDS011;3600;48.568;7.870;2023-07-20T13:47:06;2.95;;;1.45;;
7116;SDS011;3600;48.568;7.870;2023-07-20T13:49:36;1.30;;;1.20;;
7116;SDS011;3600;48.568;7.870;2023-07-20T13:52:13;1.98;;;1.55;;
7116;SDS011;3600;48.568;7.870;2023-07-20T13:54:43;1.58;;;1.30;;
7116;SDS011;3600;48.568;7.870;2023-07-20T13:57:16;2.55;;;1.60;;
7116;SDS011;3600;48.568;7.870;2023-07-20T13:59:43;3.50;;;1.30;;
7116;SDS011;3600;48.568;7.870;2023-07-20T14:02:10;1.85;;;1.13;;
7116;SDS011;3600;48.568;7.870;2023-07-20T14:04:40;2.55;;;1.50;;
7116;SDS011;3600;48.568;7.870;2023-07-20T14:07:07;1.80;;;1.50;;
7116;SDS011;3600;48.568;7.870;2023-07-20T14:09:35;1.88;;;1.70;;
7116;SDS011;3600;48.568;7.870;2023-07-20T14:12:02;3.05;;;1.67;;
7116;SDS011;3600;48.568;7.870;2023-07-20T14:14:32;1.30;;;1.20;;
7116;SDS011;3600;48.568;7.870;2023-07-20T14:16:59;1.42;;;1.33;;
7116;SDS011;3600;48.568;7.870;2023-07-20T14:19:25;1.98;;;1.55;;
7116;SDS011;3600;48.568;7.870;2023-07-20T14:21:52;1.70;;;1.60;;
7116;SDS011;3600;48.568;7.870;2023-07-20T14:24:19;4.00;;;1.70;;
7116;SDS011;3600;48.568;7.870;2023-07-20T14:26:46;2.35;;;1.60;;
7116;SDS011;3600;48.568;7.870;2023-07-20T14:29:17;1.48;;;1.38;;
7116;SDS011;3600;48.568;7.870;2023-07-20T14:31:45;3.30;;;1.67;;
7116;SDS011;3600;48.568;7.870;2023-07-20T14:34:19;2.85;;;1.13;;
7116;SDS011;3600;48.568;7.870;2023-07-20T14:36:45;1.30;;;1.20;;
7116;SDS011;3600;48.568;7.870;2023-07-20T14:39:12;1.38;;;1.25;;
7116;SDS011;3600;48.568;7.870;2023-07-20T14:41:39;1.30;;;1.20;;
7116;SDS011;3600;48.568;7.870;2023-07-20T14:44:06;1.55;;;1.10;;
7116;SDS011;3600;48.568;7.870;2023-07-20T14:46:32;1.40;;;1.10;;
7116;SDS011;3600;48.568;7.870;2023-07-20T14:48:59;3.08;;;1.60;;
7116;SDS011;3600;48.568;7.870;2023-07-20T14:51:26;1.77;;;1.35;;
7116;SDS011;3600;48.568;7.870;2023-07-20T14:54:00;1.55;;;1.40;;
7116;SDS011;3600;48.568;7.870;2023-07-20T14:56:27;2.58;;;1.40;;
7116;SDS011;3600;48.568;7.870;2023-07-20T14:58:54;2.55;;;1.42;;
7116;SDS011;3600;48.568;7.870;2023-07-20T15:01:21;1.35;;;1.10;;
7116;SDS011;3600;48.568;7.870;2023-07-20T15:03:49;4.05;;;1.42;;
7116;SDS011;3600;48.568;7.870;2023-07-20T15:06:19;1.40;;;1.30;;
7116;SDS011;3600;48.568;7.870;2023-07-20T15:08:46;1.33;;;1.23;;
7116;SDS011;3600;48.568;7.870;2023-07-20T15:11:12;2.42;;;1.38;;
7116;SDS011;3600;48.568;7.870;2023-07-20T15:13:39;2.20;;;1.65;;
7116;SDS011;3600;48.568;7.870;2023-07-20T15:16:09;1.35;;;1.25;;
7116;SDS011;3600;48.568;7.870;2023-07-20T15:18:38;1.85;;;1.35;;
7116;SDS011;3600;48.568;7.870;2023-07-20T15:21:13;1.98;;;1.23;;
7116;SDS011;3600;48.568;7.870;2023-07-20T15:23:41;1.25;;;1.13;;
7116;SDS011;3600;48.568;7.870;2023-07-20T15:26:08;2.00;;;1.50;;
7116;SDS011;3600;48.568;7.870;2023-07-20T15:28:37;1.25;;;1.15;;
7116;SDS011;3600;48.568;7.870;2023-07-20T15:31:04;2.53;;;1.52;;
7116;SDS011;3600;48.568;7.870;2023-07-20T15:33:31;1.60;;;1.20;;
7116;SDS011;3600;48.568;7.870;2023-07-20T15:35:58;1.90;;;1.25;;
7116;SDS011;3600;48.568;7.870;2023-07-20T15:38:25;2.83;;;1.83;;